sensor_id;sensor_type;location;lat;lon;timestamp;temperature;humidity
10030;DHT22;5055;52.054;8.524;2023-01-15T00:02:06;7.80;97.00
10030;DHT22;5055;52.054;8.524;2023-01-15T00:04:36;7.80;97.00
10030;DHT22;5055;52.054;8.524;2023-01-15T00:07:05;7.70;97.00
10030;DHT22;5055;52.054;8.524;2023-01-15T00:09:33;7.60;97.00
10030;DHT22;5055;52.054;8.524;2023-01-15T00:12:02;7.50;97.00
10030;DHT22;5055;52.054;8.524;2023-01-15T00:14:30;7.40;97.00
10030;DHT22;5055;52.054;8.524;2023-01-15T00:16:59;7.30;97.00
10030;DHT22;5055;52.054;8.524;2023-01-15T00:19:27;7.20;97.00
10030;DHT22;5055;52.054;8.524;2023-01-15T00:21:57;7.00;97.00
10030;DHT22;5055;52.054;8.524;2023-01-15T00:24:25;6.90;97.00
10030;DHT22;5055;52.054;8.524;2023-01-15T00:27:11;6.70;97.00
10030;DHT22;5055;52.054;8.524;2023-01-15T00:29:57;6.60;97.00
10030;DHT22;5055;52.054;8.524;2023-01-15T00:32:26;6.60;97.00
10030;DHT22;5055;52.054;8.524;2023-01-15T00:34:58;6.50;97.00
10030;DHT22;5055;52.054;8.524;2023-01-15T00:37:28;6.50;97.00
10030;DHT22;5055;52.054;8.524;2023-01-15T00:39:56;6.40;97.00
10030;DHT22;5055;52.054;8.524;2023-01-15T00:42:25;6.30;97.00
10030;DHT22;5055;52.054;8.524;2023-01-15T00:44:53;6.30;97.00
10030;DHT22;5055;52.054;8.524;2023-01-15T00:47:22;6.20;97.00
10030;DHT22;5055;52.054;8.524;2023-01-15T00:49:50;6.10;97.00
10030;DHT22;5055;52.054;8.524;2023-01-15T00:52:19;6.00;97.00
10030;DHT22;5055;52.054;8.524;2023-01-15T00:54:49;6.00;97.00
10030;DHT22;5055;52.054;8.524;2023-01-15T00:57:20;5.90;97.00
10030;DHT22;5055;52.054;8.524;2023-01-15T00:59:48;5.80;97.00
10030;DHT22;5055;52.054;8.524;2023-01-15T01:02:17;5.80;97.00
10030;DHT22;5055;52.054;8.524;2023-01-15T01:04:48;5.70;97.00
10030;DHT22;5055;52.054;8.524;2023-01-15T01:07:16;5.70;97.00
10030;DHT22;5055;52.054;8.524;2023-01-15T01:09:45;5.60;97.00
10030;DHT22;5055;52.054;8.524;2023-01-15T01:12:15;5.50;97.00
10030;DHT22;5055;52.054;8.524;2023-01-15T01:14:43;5.50;97.00
10030;DHT22;5055;52.054;8.524;2023-01-15T01:17:12;5.40;97.00
10030;DHT22;5055;52.054;8.524;2023-01-15T01:19:41;5.40;97.00
10030;DHT22;5055;52.054;8.524;2023-01-15T01:22:09;5.40;97.00
10030;DHT22;5055;52.054;8.524;2023-01-15T01:24:38;5.40;97.00
10030;DHT22;5055;52.054;8.524;2023-01-15T01:27:06;5.30;97.00
10030;DHT22;5055;52.054;8.524;2023-01-15T01:29:36;5.30;97.00
10030;DHT22;5055;52.054;8.524;2023-01-15T01:32:05;5.30;97.00
10030;DHT22;5055;52.054;8.524;2023-01-15T01:34:33;5.30;97.00
10030;DHT22;5055;52.054;8.524;2023-01-15T01:37:02;5.30;97.00
10030;DHT22;5055;52.054;8.524;2023-01-15T01:39:30;5.30;97.00
10030;DHT22;5055;52.054;8.524;2023-01-15T01:41:58;5.40;97.00
10030;DHT22;5055;52.054;8.524;2023-01-15T01:45:01;5.30;97.00
10030;DHT22;5055;52.054;8.524;2023-01-15T01:47:31;5.40;97.00
10030;DHT22;5055;52.054;8.524;2023-01-15T01:50:03;5.40;97.00
10030;DHT22;5055;52.054;8.524;2023-01-15T01:52:38;5.40;97.00
10030;DHT22;5055;52.054;8.524;2023-01-15T01:55:09;5.40;97.00
10030;DHT22;5055;52.054;8.524;2023-01-15T01:57:39;5.40;97.00
10030;DHT22;5055;52.054;8.524;2023-01-15T02:00:11;5.40;97.00
10030;DHT22;5055;52.054;8.524;2023-01-15T02:02:43;5.40;97.00
10030;DHT22;5055;52.054;8.524;2023-01-15T02:05:14;5.40;97.00
10030;DHT22;5055;52.054;8.524;2023-01-15T02:07:46;5.40;97.00
10030;DHT22;5055;52.054;8.524;2023-01-15T02:10:15;5.40;97.00
10030;DHT22;5055;52.054;8.524;2023-01-15T02:12:50;5.50;97.00
10030;DHT22;5055;52.054;8.524;2023-01-15T02:15:27;5.50;97.00
10030;DHT22;5055;52.054;8.524;2023-01-15T02:18:05;5.60;97.00
10030;DHT22;5055;52.054;8.524;2023-01-15T02:20:37;5.60;97.00
10030;DHT22;5055;52.054;8.524;2023-01-15T02:23:26;5.60;97.00
10030;DHT22;5055;52.054;8.524;2023-01-15T02:26:53;5.60;97.00
10030;DHT22;5055;52.054;8.524;2023-01-15T02:29:28;5.60;97.00
10030;DHT22;5055;52.054;8.524;2023-01-15T02:32:00;5.60;97.00
10030;DHT22;5055;52.054;8.524;2023-01-15T02:34:32;5.60;97.00
10030;DHT22;5055;52.054;8.524;2023-01-15T02:37:05;5.70;97.00
10030;DHT22;5055;52.054;8.524;2023-01-15T02:39:36;5.70;97.00
10030;DHT22;5055;52.054;8.524;2023-01-15T02:42:09;5.70;97.00
10030;DHT22;5055;52.054;8.524;2023-01-15T02:44:42;5.70;97.00
10030;DHT22;5055;52.054;8.524;2023-01-15T02:47:13;5.60;97.00
10030;DHT22;5055;52.054;8.524;2023-01-15T02:49:43;5.70;97.00
10030;DHT22;5055;52.054;8.524;2023-01-15T02:52:15;5.70;97.00
10030;DHT22;5055;52.054;8.524;2023-01-15T02:54:48;5.70;97.00
10030;DHT22;5055;52.054;8.524;2023-01-15T02:57:20;5.70;97.00
10030;DHT22;5055;52.054;8.524;2023-01-15T02:59:49;5.70;97.00
10030;DHT22;5055;52.054;8.524;2023-01-15T03:02:20;5.70;97.00
10030;DHT22;5055;52.054;8.524;2023-01-15T03:04:53;5.80;97.00
10030;DHT22;5055;52.054;8.524;2023-01-15T03:07:26;5.70;97.00
10030;DHT22;5055;52.054;8.524;2023-01-15T03:09:57;5.80;97.00
10030;DHT22;5055;52.054;8.524;2023-01-15T03:12:31;5.80;97.00
10030;DHT22;5055;52.054;8.524;2023-01-15T03:15:25;5.80;97.00
10030;DHT22;5055;52.054;8.524;2023-01-15T03:18:10;5.80;97.00
10030;DHT22;5055;52.054;8.524;2023-01-15T03:20:44;5.90;97.00
10030;DHT22;5055;52.054;8.524;2023-01-15T03:23:15;5.90;97.00
10030;DHT22;5055;52.054;8.524;2023-01-15T03:25:47;5.90;97.00
10030;DHT22;5055;52.054;8.524;2023-01-15T03:28:22;5.90;97.00
10030;DHT22;5055;52.054;8.524;2023-01-15T03:30:51;5.90;97.00
10030;DHT22;5055;52.054;8.524;2023-01-15T03:33:19;5.90;97.00
10030;DHT22;5055;52.054;8.524;2023-01-15T03:35:51;5.90;97.00
10030;DHT22;5055;52.054;8.524;2023-01-15T03:38:21;5.90;97.00
10030;DHT22;5055;52.054;8.524;2023-01-15T03:40:55;5.90;97.00
10030;DHT22;5055;52.054;8.524;2023-01-15T03:43:39;5.90;97.00
10030;DHT22;5055;52.054;8.524;2023-01-15T03:46:16;5.90;97.00
10030;DHT22;5055;52.054;8.524;2023-01-15T03:48:53;5.90;97.00
10030;DHT22;5055;52.054;8.524;2023-01-15T03:51:27;5.90;97.00
10030;DHT22;5055;52.054;8.524;2023-01-15T03:53:57;5.90;97.00
10030;DHT22;5055;52.054;8.524;2023-01-15T03:56:31;5.90;97.00
10030;DHT22;5055;52.054;8.524;2023-01-15T03:59:08;5.90;97.00
10030;DHT22;5055;52.054;8.524;2023-01-15T04:01:39;5.90;97.00
10030;DHT22;5055;52.054;8.524;2023-01-15T04:04:10;5.90;97.00
10030;DHT22;5055;52.054;8.524;2023-01-15T04:06:41;5.90;97.00
10030;DHT22;5055;52.054;8.524;2023-01-15T04:09:11;5.90;97.00
10030;DHT22;5055;52.054;8.524;2023-01-15T04:11:40;5.90;97.00
10030;DHT22;5055;52.054;8.524;2023-01-15T04:14:11;6.00;97.00
10030;DHT22;5055;52.054;8.524;2023-01-15T04:16:40;6.00;97.00
10030;DHT22;5055;52.054;8.524;2023-01-15T04:19:09;6.00;97.00
10030;DHT22;5055;52.054;8.524;2023-01-15T04:21:37;6.00;97.00
10030;DHT22;5055;52.054;8.524;2023-01-15T04:24:06;6.00;97.00
10030;DHT22;5055;52.054;8.524;2023-01-15T04:26:37;6.00;97.00
10030;DHT22;5055;52.054;8.524;2023-01-15T04:29:06;6.10;97.00
10030;DHT22;5055;52.054;8.524;2023-01-15T04:31:35;6.10;97.00
10030;DHT22;5055;52.054;8.524;2023-01-15T04:34:04;6.10;97.00
10030;DHT22;5055;52.054;8.524;2023-01-15T04:36:32;6.10;97.00
10030;DHT22;5055;52.054;8.524;2023-01-15T04:39:02;6.00;97.00
10030;DHT22;5055;52.054;8.524;2023-01-15T04:41:31;6.10;97.00
10030;DHT22;5055;52.054;8.524;2023-01-15T04:44:17;6.10;97.00
10030;DHT22;5055;52.054;8.524;2023-01-15T04:46:46;6.10;97.00
10030;DHT22;5055;52.054;8.524;2023-01-15T04:49:16;6.10;97.00
10030;DHT22;5055;52.054;8.524;2023-01-15T04:51:45;6.10;97.00
10030;DHT22;5055;52.054;8.524;2023-01-15T04:54:16;6.10;97.00
10030;DHT22;5055;52.054;8.524;2023-01-15T04:56:46;6.10;97.00
10030;DHT22;5055;52.054;8.524;2023-01-15T04:59:18;6.10;97.00
10030;DHT22;5055;52.054;8.524;2023-01-15T05:01:49;6.10;97.00
10030;DHT22;5055;52.054;8.524;2023-01-15T05:04:30;6.10;97.00
10030;DHT22;5055;52.054;8.524;2023-01-15T05:07:00;6.10;97.00
10030;DHT22;5055;52.054;8.524;2023-01-15T05:09:28;6.10;97.00
10030;DHT22;5055;52.054;8.524;2023-01-15T05:11:56;6.20;97.00
10030;DHT22;5055;52.054;8.524;2023-01-15T05:14:25;6.10;97.00
10030;DHT22;5055;52.054;8.524;2023-01-15T05:16:55;6.10;97.00
10030;DHT22;5055;52.054;8.524;2023-01-15T05:19:23;6.10;97.00
10030;DHT22;5055;52.054;8.524;2023-01-15T05:21:51;6.10;97.00
10030;DHT22;5055;52.054;8.524;2023-01-15T05:24:20;6.10;97.00
10030;DHT22;5055;52.054;8.524;2023-01-15T05:26:48;6.20;97.00
10030;DHT22;5055;52.054;8.524;2023-01-15T05:29:16;6.20;97.00
10030;DHT22;5055;52.054;8.524;2023-01-15T05:31:45;6.20;97.00
10030;DHT22;5055;52.054;8.524;2023-01-15T05:34:15;6.20;97.00
10030;DHT22;5055;52.054;8.524;2023-01-15T05:36:43;6.20;97.00
10030;DHT22;5055;52.054;8.524;2023-01-15T05:39:12;6.20;97.00
10030;DHT22;5055;52.054;8.524;2023-01-15T05:41:40;6.20;97.00
10030;DHT22;5055;52.054;8.524;2023-01-15T05:44:21;6.20;97.00
10030;DHT22;5055;52.054;8.524;2023-01-15T05:46:51;6.20;97.00
10030;DHT22;5055;52.054;8.524;2023-01-15T05:49:24;6.20;97.00
10030;DHT22;5055;52.054;8.524;2023-01-15T05:51:53;6.20;97.00
10030;DHT22;5055;52.054;8.524;2023-01-15T05:54:24;6.20;97.00
10030;DHT22;5055;52.054;8.524;2023-01-15T05:56:52;6.20;97.00
10030;DHT22;5055;52.054;8.524;2023-01-15T05:59:23;6.20;97.00
10030;DHT22;5055;52.054;8.524;2023-01-15T06:01:52;6.20;97.00
10030;DHT22;5055;52.054;8.524;2023-01-15T06:04:22;6.20;97.00
10030;DHT22;5055;52.054;8.524;2023-01-15T06:06:52;6.20;97.00
10030;DHT22;5055;52.054;8.524;2023-01-15T06:09:21;6.20;97.00
10030;DHT22;5055;52.054;8.524;2023-01-15T06:11:50;6.20;97.00
10030;DHT22;5055;52.054;8.524;2023-01-15T06:14:20;6.20;97.00
10030;DHT22;5055;52.054;8.524;2023-01-15T06:16:48;6.20;97.00
10030;DHT22;5055;52.054;8.524;2023-01-15T06:19:16;6.20;97.00
10030;DHT22;5055;52.054;8.524;2023-01-15T06:21:46;6.20;97.00
10030;DHT22;5055;52.054;8.524;2023-01-15T06:24:15;6.20;97.00
10030;DHT22;5055;52.054;8.524;2023-01-15T06:26:43;6.30;97.00
10030;DHT22;5055;52.054;8.524;2023-01-15T06:29:12;6.30;97.00
10030;DHT22;5055;52.054;8.524;2023-01-15T06:31:45;6.20;97.00
10030;DHT22;5055;52.054;8.524;2023-01-15T06:34:14;6.20;97.00
10030;DHT22;5055;52.054;8.524;2023-01-15T06:36:42;6.20;97.00
10030;DHT22;5055;52.054;8.524;2023-01-15T06:39:12;6.20;97.00
10030;DHT22;5055;52.054;8.524;2023-01-15T06:41:40;6.20;97.00
10030;DHT22;5055;52.054;8.524;2023-01-15T06:44:26;6.20;97.00
10030;DHT22;5055;52.054;8.524;2023-01-15T06:47:13;6.20;97.00
10030;DHT22;5055;52.054;8.524;2023-01-15T06:49:51;6.10;97.00
10030;DHT22;5055;52.054;8.524;2023-01-15T06:52:20;6.10;97.00
10030;DHT22;5055;52.054;8.524;2023-01-15T06:54:51;6.10;97.00
10030;DHT22;5055;52.054;8.524;2023-01-15T06:57:20;6.10;97.00
10030;DHT22;5055;52.054;8.524;2023-01-15T06:59:49;6.10;97.00
10030;DHT22;5055;52.054;8.524;2023-01-15T07:02:18;6.10;97.00
10030;DHT22;5055;52.054;8.524;2023-01-15T07:04:47;6.20;97.00
10030;DHT22;5055;52.054;8.524;2023-01-15T07:07:17;6.10;97.00
10030;DHT22;5055;52.054;8.524;2023-01-15T07:09:46;6.10;97.00
10030;DHT22;5055;52.054;8.524;2023-01-15T07:12:16;6.10;97.00
10030;DHT22;5055;52.054;8.524;2023-01-15T07:14:45;6.10;97.00
10030;DHT22;5055;52.054;8.524;2023-01-15T07:17:14;6.10;97.00
10030;DHT22;5055;52.054;8.524;2023-01-15T07:19:42;6.10;97.00
10030;DHT22;5055;52.054;8.524;2023-01-15T07:22:14;6.10;97.00
10030;DHT22;5055;52.054;8.524;2023-01-15T07:24:42;6.10;97.00
10030;DHT22;5055;52.054;8.524;2023-01-15T07:27:11;6.10;97.00
10030;DHT22;5055;52.054;8.524;2023-01-15T07:29:40;6.20;97.00
10030;DHT22;5055;52.054;8.524;2023-01-15T07:32:09;6.20;97.00
10030;DHT22;5055;52.054;8.524;2023-01-15T07:34:37;6.20;97.00
10030;DHT22;5055;52.054;8.524;2023-01-15T07:37:09;6.20;97.00
10030;DHT22;5055;52.054;8.524;2023-01-15T07:39:37;6.20;97.00
10030;DHT22;5055;52.054;8.524;2023-01-15T07:42:08;6.30;97.00
10030;DHT22;5055;52.054;8.524;2023-01-15T07:44:55;6.30;97.00
10030;DHT22;5055;52.054;8.524;2023-01-15T07:47:41;6.30;97.00
10030;DHT22;5055;52.054;8.524;2023-01-15T07:50:27;6.40;97.00
10030;DHT22;5055;52.054;8.524;2023-01-15T07:52:55;6.40;97.00
10030;DHT22;5055;52.054;8.524;2023-01-15T07:55:24;6.40;97.00
10030;DHT22;5055;52.054;8.524;2023-01-15T07:57:52;6.40;97.00
10030;DHT22;5055;52.054;8.524;2023-01-15T08:00:25;6.40;97.00
10030;DHT22;5055;52.054;8.524;2023-01-15T08:02:54;6.30;97.00
10030;DHT22;5055;52.054;8.524;2023-01-15T08:05:22;6.30;97.00
10030;DHT22;5055;52.054;8.524;2023-01-15T08:07:50;6.30;97.00
10030;DHT22;5055;52.054;8.524;2023-01-15T08:10:19;6.30;97.00
10030;DHT22;5055;52.054;8.524;2023-01-15T08:12:48;6.30;97.00
10030;DHT22;5055;52.054;8.524;2023-01-15T08:15:39;6.30;97.00
10030;DHT22;5055;52.054;8.524;2023-01-15T08:18:10;6.30;97.00
10030;DHT22;5055;52.054;8.524;2023-01-15T08:20:38;6.30;97.00
10030;DHT22;5055;52.054;8.524;2023-01-15T08:23:07;6.30;97.00
10030;DHT22;5055;52.054;8.524;2023-01-15T08:25:36;6.40;97.00
10030;DHT22;5055;52.054;8.524;2023-01-15T08:28:05;6.40;97.00
10030;DHT22;5055;52.054;8.524;2023-01-15T08:30:33;6.40;97.00
10030;DHT22;5055;52.054;8.524;2023-01-15T08:33:04;6.50;97.00
10030;DHT22;5055;52.054;8.524;2023-01-15T08:35:32;6.50;97.00
10030;DHT22;5055;52.054;8.524;2023-01-15T08:38:05;6.50;97.00
10030;DHT22;5055;52.054;8.524;2023-01-15T08:40:34;6.50;97.00
10030;DHT22;5055;52.054;8.524;2023-01-15T08:43:23;6.50;97.00
10030;DHT22;5055;52.054;8.524;2023-01-15T08:45:54;6.50;97.00
10030;DHT22;5055;52.054;8.524;2023-01-15T08:48:26;6.60;97.00
10030;DHT22;5055;52.054;8.524;2023-01-15T08:50:55;6.60;97.00
10030;DHT22;5055;52.054;8.524;2023-01-15T08:53:24;6.60;97.00
10030;DHT22;5055;52.054;8.524;2023-01-15T08:55:55;6.60;97.00
10030;DHT22;5055;52.054;8.524;2023-01-15T08:58:26;6.60;97.00
10030;DHT22;5055;52.054;8.524;2023-01-15T09:01:02;6.60;97.00
10030;DHT22;5055;52.054;8.524;2023-01-15T09:03:32;6.60;97.00
10030;DHT22;5055;52.054;8.524;2023-01-15T09:06:01;6.60;97.00
10030;DHT22;5055;52.054;8.524;2023-01-15T09:08:32;6.60;97.00
10030;DHT22;5055;52.054;8.524;2023-01-15T09:11:02;6.60;97.00
10030;DHT22;5055;52.054;8.524;2023-01-15T09:13:31;6.60;97.00
10030;DHT22;5055;52.054;8.524;2023-01-15T09:16:00;6.50;97.00
10030;DHT22;5055;52.054;8.524;2023-01-15T09:18:29;6.50;97.00
10030;DHT22;5055;52.054;8.524;2023-01-15T09:21:00;6.50;97.00
10030;DHT22;5055;52.054;8.524;2023-01-15T09:23:28;6.40;97.00
10030;DHT22;5055;52.054;8.524;2023-01-15T09:25:58;6.40;97.00
10030;DHT22;5055;52.054;8.524;2023-01-15T09:28:28;6.30;97.00
10030;DHT22;5055;52.054;8.524;2023-01-15T09:30:56;6.30;97.00
10030;DHT22;5055;52.054;8.524;2023-01-15T09:33:25;6.30;97.00
10030;DHT22;5055;52.054;8.524;2023-01-15T09:35:54;6.30;97.00
10030;DHT22;5055;52.054;8.524;2023-01-15T09:38:24;6.20;97.00
10030;DHT22;5055;52.054;8.524;2023-01-15T09:40:54;6.20;97.00
10030;DHT22;5055;52.054;8.524;2023-01-15T09:43:33;6.20;97.00
10030;DHT22;5055;52.054;8.524;2023-01-15T09:46:20;6.20;97.00
10030;DHT22;5055;52.054;8.524;2023-01-15T09:48:57;6.20;97.00
10030;DHT22;5055;52.054;8.524;2023-01-15T09:51:35;6.20;97.00
10030;DHT22;5055;52.054;8.524;2023-01-15T09:54:20;6.20;97.00
10030;DHT22;5055;52.054;8.524;2023-01-15T09:56:51;6.20;97.00
10030;DHT22;5055;52.054;8.524;2023-01-15T09:59:27;6.20;97.00
10030;DHT22;5055;52.054;8.524;2023-01-15T10:01:56;6.20;97.00
10030;DHT22;5055;52.054;8.524;2023-01-15T10:04:33;6.30;97.00
10030;DHT22;5055;52.054;8.524;2023-01-15T10:07:15;6.30;97.00
10030;DHT22;5055;52.054;8.524;2023-01-15T10:09:55;6.50;97.00
10030;DHT22;5055;52.054;8.524;2023-01-15T10:12:26;6.90;97.00
10030;DHT22;5055;52.054;8.524;2023-01-15T10:15:15;7.10;97.00
10030;DHT22;5055;52.054;8.524;2023-01-15T10:17:47;7.20;97.00
10030;DHT22;5055;52.054;8.524;2023-01-15T10:20:34;7.20;97.00
10030;DHT22;5055;52.054;8.524;2023-01-15T10:23:22;7.40;97.00
10030;DHT22;5055;52.054;8.524;2023-01-15T10:26:01;7.50;97.00
10030;DHT22;5055;52.054;8.524;2023-01-15T10:28:45;7.50;97.00
10030;DHT22;5055;52.054;8.524;2023-01-15T10:31:18;7.50;97.00
10030;DHT22;5055;52.054;8.524;2023-01-15T10:34:05;7.50;97.00
10030;DHT22;5055;52.054;8.524;2023-01-15T10:36:39;7.50;97.00
10030;DHT22;5055;52.054;8.524;2023-01-15T10:39:16;7.50;97.00
10030;DHT22;5055;52.054;8.524;2023-01-15T10:41:59;7.50;97.00
10030;DHT22;5055;52.054;8.524;2023-01-15T10:44:40;7.50;97.00
10030;DHT22;5055;52.054;8.524;2023-01-15T10:47:14;7.50;97.00
10030;DHT22;5055;52.054;8.524;2023-01-15T10:49:44;7.40;97.00
10030;DHT22;5055;52.054;8.524;2023-01-15T10:52:24;7.40;97.00
10030;DHT22;5055;52.054;8.524;2023-01-15T10:55:02;7.40;97.00
10030;DHT22;5055;52.054;8.524;2023-01-15T10:57:43;7.40;97.00
10030;DHT22;5055;52.054;8.524;2023-01-15T11:00:22;7.40;97.00
10030;DHT22;5055;52.054;8.524;2023-01-15T11:02:59;7.30;97.00
10030;DHT22;5055;52.054;8.524;2023-01-15T11:05:31;7.30;97.00
10030;DHT22;5055;52.054;8.524;2023-01-15T11:08:03;7.30;97.00
10030;DHT22;5055;52.054;8.524;2023-01-15T11:10:54;7.40;97.00
10030;DHT22;5055;52.054;8.524;2023-01-15T11:13:25;7.40;97.00
10030;DHT22;5055;52.054;8.524;2023-01-15T11:16:13;7.40;97.00
10030;DHT22;5055;52.054;8.524;2023-01-15T11:19:01;7.50;97.00
10030;DHT22;5055;52.054;8.524;2023-01-15T11:21:49;7.50;97.00
10030;DHT22;5055;52.054;8.524;2023-01-15T11:24:18;7.50;97.00
10030;DHT22;5055;52.054;8.524;2023-01-15T11:26:49;7.40;97.00
10030;DHT22;5055;52.054;8.524;2023-01-15T11:29:29;7.40;97.00
10030;DHT22;5055;52.054;8.524;2023-01-15T11:31:58;7.40;97.00
10030;DHT22;5055;52.054;8.524;2023-01-15T11:34:27;7.40;97.00
10030;DHT22;5055;52.054;8.524;2023-01-15T11:37:02;7.40;97.00
10030;DHT22;5055;52.054;8.524;2023-01-15T11:39:31;7.30;97.00
10030;DHT22;5055;52.054;8.524;2023-01-15T11:42:01;7.40;97.00
10030;DHT22;5055;52.054;8.524;2023-01-15T11:44:53;7.40;97.00
10030;DHT22;5055;52.054;8.524;2023-01-15T11:47:49;7.40;97.00
10030;DHT22;5055;52.054;8.524;2023-01-15T11:50:39;7.40;97.00
10030;DHT22;5055;52.054;8.524;2023-01-15T11:53:16;7.50;97.00
10030;DHT22;5055;52.054;8.524;2023-01-15T11:55:58;7.50;97.00
10030;DHT22;5055;52.054;8.524;2023-01-15T11:58:38;7.50;97.00
10030;DHT22;5055;52.054;8.524;2023-01-15T12:01:13;7.50;97.00
10030;DHT22;5055;52.054;8.524;2023-01-15T12:03:47;7.40;97.00
10030;DHT22;5055;52.054;8.524;2023-01-15T12:06:18;7.40;97.00
10030;DHT22;5055;52.054;8.524;2023-01-15T12:08:49;7.40;97.00
10030;DHT22;5055;52.054;8.524;2023-01-15T12:11:37;7.30;97.00
10030;DHT22;5055;52.054;8.524;2023-01-15T12:14:30;7.30;97.00
10030;DHT22;5055;52.054;8.524;2023-01-15T12:17:16;7.30;97.00
10030;DHT22;5055;52.054;8.524;2023-01-15T12:19:54;7.40;97.00
10030;DHT22;5055;52.054;8.524;2023-01-15T12:22:38;7.40;97.00
10030;DHT22;5055;52.054;8.524;2023-01-15T12:25:26;7.40;97.00
10030;DHT22;5055;52.054;8.524;2023-01-15T12:28:01;7.50;97.00
10030;DHT22;5055;52.054;8.524;2023-01-15T12:30:38;7.60;97.00
10030;DHT22;5055;52.054;8.524;2023-01-15T12:33:18;7.60;97.00
10030;DHT22;5055;52.054;8.524;2023-01-15T12:35:53;7.60;97.00
10030;DHT22;5055;52.054;8.524;2023-01-15T12:38:38;7.50;97.00
10030;DHT22;5055;52.054;8.524;2023-01-15T12:41:11;7.50;97.00
10030;DHT22;5055;52.054;8.524;2023-01-15T12:43:44;7.50;97.00
10030;DHT22;5055;52.054;8.524;2023-01-15T12:46:33;7.50;97.00
10030;DHT22;5055;52.054;8.524;2023-01-15T12:49:14;7.40;97.00
10030;DHT22;5055;52.054;8.524;2023-01-15T12:51:48;7.40;97.00
10030;DHT22;5055;52.054;8.524;2023-01-15T12:54:21;7.40;97.00
10030;DHT22;5055;52.054;8.524;2023-01-15T12:56:56;7.40;97.00
10030;DHT22;5055;52.054;8.524;2023-01-15T12:59:32;7.40;97.00
10030;DHT22;5055;52.054;8.524;2023-01-15T13:02:11;7.40;97.00
10030;DHT22;5055;52.054;8.524;2023-01-15T13:04:46;7.30;97.00
10030;DHT22;5055;52.054;8.524;2023-01-15T13:07:20;7.40;97.00
10030;DHT22;5055;52.054;8.524;2023-01-15T13:09:55;7.40;97.00
10030;DHT22;5055;52.054;8.524;2023-01-15T13:12:27;7.40;97.00
10030;DHT22;5055;52.054;8.524;2023-01-15T13:14:56;7.30;97.00
10030;DHT22;5055;52.054;8.524;2023-01-15T13:17:30;7.30;97.00
10030;DHT22;5055;52.054;8.524;2023-01-15T13:20:15;7.30;97.00
10030;DHT22;5055;52.054;8.524;2023-01-15T13:23:02;7.30;97.00
10030;DHT22;5055;52.054;8.524;2023-01-15T13:25:48;7.30;97.00
10030;DHT22;5055;52.054;8.524;2023-01-15T13:28:43;7.40;97.00
10030;DHT22;5055;52.054;8.524;2023-01-15T13:31:33;7.50;97.00
10030;DHT22;5055;52.054;8.524;2023-01-15T13:34:12;7.60;97.00
10030;DHT22;5055;52.054;8.524;2023-01-15T13:36:45;7.60;97.00
10030;DHT22;5055;52.054;8.524;2023-01-15T13:39:18;7.60;97.00
10030;DHT22;5055;52.054;8.524;2023-01-15T13:41:49;7.60;97.00
10030;DHT22;5055;52.054;8.524;2023-01-15T13:44:45;7.60;97.00
10030;DHT22;5055;52.054;8.524;2023-01-15T13:47:20;7.60;97.00
10030;DHT22;5055;52.054;8.524;2023-01-15T13:49:52;7.60;97.00
10030;DHT22;5055;52.054;8.524;2023-01-15T13:52:27;7.60;97.00
10030;DHT22;5055;52.054;8.524;2023-01-15T13:54:59;7.60;97.00
10030;DHT22;5055;52.054;8.524;2023-01-15T13:57:32;7.60;97.00
10030;DHT22;5055;52.054;8.524;2023-01-15T14:00:03;7.60;97.00
10030;DHT22;5055;52.054;8.524;2023-01-15T14:02:33;7.50;97.00
10030;DHT22;5055;52.054;8.524;2023-01-15T14:05:17;7.50;97.00
10030;DHT22;5055;52.054;8.524;2023-01-15T14:07:53;7.50;97.00
10030;DHT22;5055;52.054;8.524;2023-01-15T14:10:33;7.50;97.00
10030;DHT22;5055;52.054;8.524;2023-01-15T14:13:27;7.40;97.00
10030;DHT22;5055;52.054;8.524;2023-01-15T14:16:06;7.40;97.00
10030;DHT22;5055;52.054;8.524;2023-01-15T14:18:59;7.40;97.00
10030;DHT22;5055;52.054;8.524;2023-01-15T14:21:43;7.30;97.00
10030;DHT22;5055;52.054;8.524;2023-01-15T14:24:38;7.30;97.00
10030;DHT22;5055;52.054;8.524;2023-01-15T14:27:21;7.30;97.00
10030;DHT22;5055;52.054;8.524;2023-01-15T14:30:06;7.30;97.00
10030;DHT22;5055;52.054;8.524;2023-01-15T14:32:47;7.30;97.00
10030;DHT22;5055;52.054;8.524;2023-01-15T14:35:20;7.20;97.00
10030;DHT22;5055;52.054;8.524;2023-01-15T14:37:53;7.20;97.00
10030;DHT22;5055;52.054;8.524;2023-01-15T14:40:27;7.20;97.00
10030;DHT22;5055;52.054;8.524;2023-01-15T14:42:58;7.20;97.00
10030;DHT22;5055;52.054;8.524;2023-01-15T14:45:33;7.20;97.00
10030;DHT22;5055;52.054;8.524;2023-01-15T14:48:05;7.20;97.00
10030;DHT22;5055;52.054;8.524;2023-01-15T14:50:36;7.20;97.00
10030;DHT22;5055;52.054;8.524;2023-01-15T14:53:32;7.20;97.00
10030;DHT22;5055;52.054;8.524;2023-01-15T14:56:15;7.20;97.00
10030;DHT22;5055;52.054;8.524;2023-01-15T14:58:57;7.20;97.00
10030;DHT22;5055;52.054;8.524;2023-01-15T15:01:34;7.20;97.00
10030;DHT22;5055;52.054;8.524;2023-01-15T15:04:14;7.20;97.00
10030;DHT22;5055;52.054;8.524;2023-01-15T15:06:49;7.20;97.00
10030;DHT22;5055;52.054;8.524;2023-01-15T15:09:28;7.20;97.00
10030;DHT22;5055;52.054;8.524;2023-01-15T15:12:06;7.20;97.00
10030;DHT22;5055;52.054;8.524;2023-01-15T15:14:52;7.20;97.00
10030;DHT22;5055;52.054;8.524;2023-01-15T15:17:34;7.20;97.00
10030;DHT22;5055;52.054;8.524;2023-01-15T15:20:20;7.10;97.00
10030;DHT22;5055;52.054;8.524;2023-01-15T15:22:54;7.10;97.00
10030;DHT22;5055;52.054;8.524;2023-01-15T15:25:26;7.10;97.00
10030;DHT22;5055;52.054;8.524;2023-01-15T15:28:05;7.20;97.00
10030;DHT22;5055;52.054;8.524;2023-01-15T15:30:35;7.20;97.00
10030;DHT22;5055;52.054;8.524;2023-01-15T15:33:15;7.20;97.00
10030;DHT22;5055;52.054;8.524;2023-01-15T15:35:47;7.20;97.00
10030;DHT22;5055;52.054;8.524;2023-01-15T15:38:18;7.20;97.00
10030;DHT22;5055;52.054;8.524;2023-01-15T15:40:50;7.20;97.00
10030;DHT22;5055;52.054;8.524;2023-01-15T15:43:24;7.20;97.00
10030;DHT22;5055;52.054;8.524;2023-01-15T15:46:26;7.10;97.00
10030;DHT22;5055;52.054;8.524;2023-01-15T15:49:12;7.10;97.00
10030;DHT22;5055;52.054;8.524;2023-01-15T15:51:45;7.10;97.00
10030;DHT22;5055;52.054;8.524;2023-01-15T15:54:16;7.10;97.00
10030;DHT22;5055;52.054;8.524;2023-01-15T15:56:49;7.10;97.00
10030;DHT22;5055;52.054;8.524;2023-01-15T15:59:27;7.10;97.00
10030;DHT22;5055;52.054;8.524;2023-01-15T16:01:57;7.10;97.00
10030;DHT22;5055;52.054;8.524;2023-01-15T16:04:27;7.10;97.00
10030;DHT22;5055;52.054;8.524;2023-01-15T16:06:55;7.20;97.00
10030;DHT22;5055;52.054;8.524;2023-01-15T16:09:24;7.20;97.00
10030;DHT22;5055;52.054;8.524;2023-01-15T16:11:53;7.20;97.00
10030;DHT22;5055;52.054;8.524;2023-01-15T16:14:35;7.20;97.00
10030;DHT22;5055;52.054;8.524;2023-01-15T16:17:04;7.30;97.00
10030;DHT22;5055;52.054;8.524;2023-01-15T16:19:33;7.30;97.00
10030;DHT22;5055;52.054;8.524;2023-01-15T16:22:01;7.30;97.00
10030;DHT22;5055;52.054;8.524;2023-01-15T16:24:32;7.30;97.00
10030;DHT22;5055;52.054;8.524;2023-01-15T16:27:03;7.20;97.00
10030;DHT22;5055;52.054;8.524;2023-01-15T16:29:35;7.20;97.00
10030;DHT22;5055;52.054;8.524;2023-01-15T16:32:10;7.20;97.00
10030;DHT22;5055;52.054;8.524;2023-01-15T16:34:39;7.20;97.00
10030;DHT22;5055;52.054;8.524;2023-01-15T16:37:22;7.20;97.00
10030;DHT22;5055;52.054;8.524;2023-01-15T16:39:52;7.20;97.00
10030;DHT22;5055;52.054;8.524;2023-01-15T16:42:26;7.20;97.00
10030;DHT22;5055;52.054;8.524;2023-01-15T16:45:00;7.20;97.00
10030;DHT22;5055;52.054;8.524;2023-01-15T16:47:32;7.20;97.00